sensor_id;sensor_type;location;lat;lon;timestamp;P1;durP1;ratioP1;P2;durP2;ratioP2
77417;SDS011;66490;51.484;0.026;2023-02-16T00:01:50;32.77;;;16.07;;
77417;SDS011;66490;51.484;0.026;2023-02-16T00:04:18;27.38;;;15.20;;
77417;SDS011;66490;51.484;0.026;2023-02-16T00:06:45;27.85;;;14.98;;
77417;SDS011;66490;51.484;0.026;2023-02-16T00:09:11;33.35;;;14.57;;
77417;SDS011;66490;51.484;0.026;2023-02-16T00:11:37;27.83;;;13.83;;
77417;SDS011;66490;51.484;0.026;2023-02-16T00:14:22;28.25;;;13.25;;
77417;SDS011;66490;51.484;0.026;2023-02-16T00:16:50;25.80;;;10.60;;
77417;SDS011;66490;51.484;0.026;2023-02-16T00:19:21;23.88;;;10.35;;
77417;SDS011;66490;51.484;0.026;2023-02-16T00:21:52;17.42;;;7.50;;
77417;SDS011;66490;51.484;0.026;2023-02-16T00:24:20;17.53;;;7.50;;
77417;SDS011;66490;51.484;0.026;2023-02-16T00:26:47;16.63;;;6.70;;
77417;SDS011;66490;51.484;0.026;2023-02-16T00:31:53;11.80;;;5.57;;
77417;SDS011;66490;51.484;0.026;2023-02-16T00:34:35;11.70;;;5.20;;
77417;SDS011;66490;51.484;0.026;2023-02-16T00:37:03;12.70;;;4.80;;
77417;SDS011;66490;51.484;0.026;2023-02-16T00:39:31;13.10;;;4.88;;
77417;SDS011;66490;51.484;0.026;2023-02-16T00:41:58;12.65;;;5.25;;
77417;SDS011;66490;51.484;0.026;2023-02-16T00:44:28;12.15;;;4.90;;
77417;SDS011;66490;51.484;0.026;2023-02-16T00:46:54;10.77;;;4.15;;
77417;SDS011;66490;51.484;0.026;2023-02-16T00:49:23;10.70;;;4.20;;
77417;SDS011;66490;51.484;0.026;2023-02-16T00:51:49;10.85;;;4.50;;
77417;SDS011;66490;51.484;0.026;2023-02-16T00:54:17;10.27;;;4.43;;
77417;SDS011;66490;51.484;0.026;2023-02-16T00:56:42;14.33;;;4.37;;
77417;SDS011;66490;51.484;0.026;2023-02-16T00:59:12;13.15;;;4.72;;
77417;SDS011;66490;51.484;0.026;2023-02-16T01:01:42;9.10;;;4.75;;
77417;SDS011;66490;51.484;0.026;2023-02-16T01:04:08;13.87;;;4.87;;
77417;SDS011;66490;51.484;0.026;2023-02-16T01:06:41;10.97;;;4.90;;
77417;SDS011;66490;51.484;0.026;2023-02-16T01:09:25;11.57;;;4.55;;
77417;SDS011;66490;51.484;0.026;2023-02-16T01:12:12;10.48;;;4.68;;
77417;SDS011;66490;51.484;0.026;2023-02-16T01:14:41;13.30;;;4.50;;
77417;SDS011;66490;51.484;0.026;2023-02-16T01:17:09;12.68;;;5.50;;
77417;SDS011;66490;51.484;0.026;2023-02-16T01:19:35;13.57;;;5.87;;
77417;SDS011;66490;51.484;0.026;2023-02-16T01:22:00;14.20;;;5.28;;
77417;SDS011;66490;51.484;0.026;2023-02-16T01:24:26;11.43;;;5.00;;
77417;SDS011;66490;51.484;0.026;2023-02-16T01:26:51;13.87;;;4.90;;
77417;SDS011;66490;51.484;0.026;2023-02-16T01:29:19;12.13;;;4.73;;
77417;SDS011;66490;51.484;0.026;2023-02-16T01:31:48;10.73;;;4.70;;
77417;SDS011;66490;51.484;0.026;2023-02-16T01:34:14;14.80;;;5.20;;
77417;SDS011;66490;51.484;0.026;2023-02-16T01:36:44;11.65;;;5.75;;
77417;SDS011;66490;51.484;0.026;2023-02-16T01:39:15;12.13;;;4.60;;
77417;SDS011;66490;51.484;0.026;2023-02-16T01:44:44;14.55;;;5.72;;
77417;SDS011;66490;51.484;0.026;2023-02-16T01:53:05;12.67;;;4.10;;
77417;SDS011;66490;51.484;0.026;2023-02-16T01:55:41;13.90;;;5.38;;
77417;SDS011;66490;51.484;0.026;2023-02-16T01:58:14;16.17;;;5.30;;
77417;SDS011;66490;51.484;0.026;2023-02-16T02:03:27;13.30;;;5.20;;
77417;SDS011;66490;51.484;0.026;2023-02-16T02:06:14;11.13;;;5.00;;
77417;SDS011;66490;51.484;0.026;2023-02-16T02:11:33;11.93;;;4.82;;
77417;SDS011;66490;51.484;0.026;2023-02-16T02:14:21;12.02;;;4.78;;
77417;SDS011;66490;51.484;0.026;2023-02-16T02:17:04;12.88;;;5.10;;
77417;SDS011;66490;51.484;0.026;2023-02-16T02:20:05;14.90;;;5.30;;
77417;SDS011;66490;51.484;0.026;2023-02-16T02:22:51;12.20;;;5.22;;
77417;SDS011;66490;51.484;0.026;2023-02-16T02:31:00;13.90;;;5.40;;
77417;SDS011;66490;51.484;0.026;2023-02-16T02:36:21;10.65;;;4.85;;
77417;SDS011;66490;51.484;0.026;2023-02-16T02:45:07;11.10;;;3.92;;
77417;SDS011;66490;51.484;0.026;2023-02-16T02:47:44;9.85;;;3.20;;
77417;SDS011;66490;51.484;0.026;2023-02-16T02:53:33;11.87;;;3.77;;
77417;SDS011;66490;51.484;0.026;2023-02-16T02:56:06;10.77;;;3.63;;
77417;SDS011;66490;51.484;0.026;2023-02-16T02:58:52;9.57;;;3.63;;
77417;SDS011;66490;51.484;0.026;2023-02-16T03:01:42;10.35;;;3.05;;
77417;SDS011;66490;51.484;0.026;2023-02-16T03:04:13;10.93;;;3.60;;
77417;SDS011;66490;51.484;0.026;2023-02-16T03:06:45;9.73;;;3.00;;
77417;SDS011;66490;51.484;0.026;2023-02-16T03:09:15;7.90;;;3.38;;
77417;SDS011;66490;51.484;0.026;2023-02-16T03:11:43;9.63;;;3.90;;
77417;SDS011;66490;51.484;0.026;2023-02-16T03:14:36;9.82;;;3.30;;
77417;SDS011;66490;51.484;0.026;2023-02-16T03:17:07;8.02;;;3.55;;
77417;SDS011;66490;51.484;0.026;2023-02-16T03:19:57;10.83;;;3.93;;
77417;SDS011;66490;51.484;0.026;2023-02-16T03:22:43;9.70;;;3.55;;
77417;SDS011;66490;51.484;0.026;2023-02-16T03:25:30;8.25;;;3.28;;
77417;SDS011;66490;51.484;0.026;2023-02-16T03:28:23;8.80;;;3.80;;
77417;SDS011;66490;51.484;0.026;2023-02-16T03:31:10;10.18;;;4.10;;
77417;SDS011;66490;51.484;0.026;2023-02-16T03:33:40;8.10;;;3.07;;
77417;SDS011;66490;51.484;0.026;2023-02-16T03:36:06;10.20;;;3.05;;
77417;SDS011;66490;51.484;0.026;2023-02-16T03:38:33;8.90;;;3.15;;
77417;SDS011;66490;51.484;0.026;2023-02-16T03:41:03;7.70;;;3.05;;
77417;SDS011;66490;51.484;0.026;2023-02-16T03:43:29;10.15;;;3.28;;
77417;SDS011;66490;51.484;0.026;2023-02-16T03:45:55;7.70;;;3.07;;
77417;SDS011;66490;51.484;0.026;2023-02-16T03:48:20;8.30;;;2.90;;
77417;SDS011;66490;51.484;0.026;2023-02-16T03:50:46;8.70;;;3.10;;
77417;SDS011;66490;51.484;0.026;2023-02-16T03:53:11;8.53;;;3.10;;
77417;SDS011;66490;51.484;0.026;2023-02-16T03:55:39;10.10;;;3.00;;
77417;SDS011;66490;51.484;0.026;2023-02-16T03:58:07;12.00;;;3.22;;
77417;SDS011;66490;51.484;0.026;2023-02-16T04:00:34;6.03;;;2.90;;
77417;SDS011;66490;51.484;0.026;2023-02-16T04:03:00;7.88;;;2.20;;
77417;SDS011;66490;51.484;0.026;2023-02-16T04:05:26;7.95;;;4.32;;
77417;SDS011;66490;51.484;0.026;2023-02-16T04:07:52;11.80;;;2.93;;
77417;SDS011;66490;51.484;0.026;2023-02-16T04:10:18;10.40;;;3.20;;
77417;SDS011;66490;51.484;0.026;2023-02-16T04:12:44;8.10;;;2.33;;
77417;SDS011;66490;51.484;0.026;2023-02-16T04:15:20;5.93;;;1.83;;
77417;SDS011;66490;51.484;0.026;2023-02-16T04:17:48;8.85;;;2.15;;
77417;SDS011;66490;51.484;0.026;2023-02-16T04:20:15;8.23;;;2.35;;
77417;SDS011;66490;51.484;0.026;2023-02-16T04:22:43;6.97;;;1.55;;
77417;SDS011;66490;51.484;0.026;2023-02-16T04:25:09;4.82;;;2.08;;
77417;SDS011;66490;51.484;0.026;2023-02-16T04:27:35;4.73;;;1.60;;
77417;SDS011;66490;51.484;0.026;2023-02-16T04:30:02;6.28;;;2.15;;
77417;SDS011;66490;51.484;0.026;2023-02-16T04:32:29;6.25;;;2.28;;
77417;SDS011;66490;51.484;0.026;2023-02-16T04:34:54;7.13;;;2.37;;
77417;SDS011;66490;51.484;0.026;2023-02-16T04:37:20;7.65;;;2.10;;
77417;SDS011;66490;51.484;0.026;2023-02-16T04:39:45;8.83;;;1.80;;
77417;SDS011;66490;51.484;0.026;2023-02-16T04:42:11;5.50;;;2.30;;
77417;SDS011;66490;51.484;0.026;2023-02-16T04:44:37;6.10;;;1.95;;
77417;SDS011;66490;51.484;0.026;2023-02-16T04:47:02;5.93;;;2.20;;
77417;SDS011;66490;51.484;0.026;2023-02-16T04:49:28;7.15;;;2.38;;
77417;SDS011;66490;51.484;0.026;2023-02-16T04:51:57;10.40;;;2.33;;
77417;SDS011;66490;51.484;0.026;2023-02-16T04:54:24;7.13;;;2.25;;
77417;SDS011;66490;51.484;0.026;2023-02-16T04:56:53;5.10;;;1.73;;
77417;SDS011;66490;51.484;0.026;2023-02-16T04:59:18;5.07;;;1.73;;
77417;SDS011;66490;51.484;0.026;2023-02-16T05:01:44;9.77;;;2.58;;
77417;SDS011;66490;51.484;0.026;2023-02-16T05:04:10;7.73;;;2.17;;
77417;SDS011;66490;51.484;0.026;2023-02-16T05:06:36;7.00;;;1.92;;
77417;SDS011;66490;51.484;0.026;2023-02-16T05:09:02;5.80;;;1.77;;
77417;SDS011;66490;51.484;0.026;2023-02-16T05:11:29;5.00;;;2.20;;
77417;SDS011;66490;51.484;0.026;2023-02-16T05:14:16;5.63;;;2.28;;
77417;SDS011;66490;51.484;0.026;2023-02-16T05:17:03;7.22;;;2.30;;
77417;SDS011;66490;51.484;0.026;2023-02-16T05:19:28;6.27;;;2.53;;
77417;SDS011;66490;51.484;0.026;2023-02-16T05:21:54;6.03;;;1.90;;
77417;SDS011;66490;51.484;0.026;2023-02-16T05:24:20;5.63;;;1.93;;
77417;SDS011;66490;51.484;0.026;2023-02-16T05:26:45;6.57;;;2.58;;
77417;SDS011;66490;51.484;0.026;2023-02-16T05:29:14;8.77;;;2.10;;
77417;SDS011;66490;51.484;0.026;2023-02-16T05:31:40;6.93;;;1.70;;
77417;SDS011;66490;51.484;0.026;2023-02-16T05:34:05;5.87;;;2.73;;
77417;SDS011;66490;51.484;0.026;2023-02-16T05:36:31;7.85;;;2.42;;
77417;SDS011;66490;51.484;0.026;2023-02-16T05:38:59;5.65;;;2.35;;
77417;SDS011;66490;51.484;0.026;2023-02-16T05:41:25;6.77;;;2.57;;
77417;SDS011;66490;51.484;0.026;2023-02-16T05:43:51;6.47;;;2.30;;
77417;SDS011;66490;51.484;0.026;2023-02-16T05:46:19;8.15;;;2.58;;
77417;SDS011;66490;51.484;0.026;2023-02-16T05:48:45;6.07;;;2.30;;
77417;SDS011;66490;51.484;0.026;2023-02-16T05:51:10;6.80;;;2.47;;
77417;SDS011;66490;51.484;0.026;2023-02-16T05:53:36;5.85;;;1.92;;
77417;SDS011;66490;51.484;0.026;2023-02-16T05:56:02;7.17;;;2.60;;
77417;SDS011;66490;51.484;0.026;2023-02-16T05:58:27;6.18;;;2.53;;
77417;SDS011;66490;51.484;0.026;2023-02-16T06:00:53;7.10;;;2.77;;
77417;SDS011;66490;51.484;0.026;2023-02-16T06:03:19;6.63;;;2.22;;
77417;SDS011;66490;51.484;0.026;2023-02-16T06:05:44;6.83;;;2.87;;
77417;SDS011;66490;51.484;0.026;2023-02-16T06:08:10;7.23;;;2.37;;
77417;SDS011;66490;51.484;0.026;2023-02-16T06:10:35;7.75;;;2.88;;
77417;SDS011;66490;51.484;0.026;2023-02-16T06:13:01;5.30;;;2.00;;
77417;SDS011;66490;51.484;0.026;2023-02-16T06:15:27;7.15;;;2.17;;
77417;SDS011;66490;51.484;0.026;2023-02-16T06:17:52;6.87;;;2.60;;
77417;SDS011;66490;51.484;0.026;2023-02-16T06:20:18;8.70;;;3.37;;
77417;SDS011;66490;51.484;0.026;2023-02-16T06:22:43;7.88;;;2.88;;
77417;SDS011;66490;51.484;0.026;2023-02-16T06:25:09;11.10;;;4.07;;
77417;SDS011;66490;51.484;0.026;2023-02-16T06:27:34;8.23;;;3.50;;
77417;SDS011;66490;51.484;0.026;2023-02-16T06:30:00;10.15;;;3.70;;
77417;SDS011;66490;51.484;0.026;2023-02-16T06:32:26;9.40;;;4.30;;
77417;SDS011;66490;51.484;0.026;2023-02-16T06:34:52;9.07;;;4.03;;
77417;SDS011;66490;51.484;0.026;2023-02-16T06:37:17;9.57;;;5.07;;
77417;SDS011;66490;51.484;0.026;2023-02-16T06:39:43;9.80;;;4.90;;
77417;SDS011;66490;51.484;0.026;2023-02-16T06:42:08;12.73;;;6.63;;
77417;SDS011;66490;51.484;0.026;2023-02-16T06:44:34;13.10;;;6.07;;
77417;SDS011;66490;51.484;0.026;2023-02-16T06:46:59;12.57;;;6.67;;
77417;SDS011;66490;51.484;0.026;2023-02-16T06:49:24;12.97;;;7.90;;
77417;SDS011;66490;51.484;0.026;2023-02-16T06:51:51;14.77;;;7.53;;
77417;SDS011;66490;51.484;0.026;2023-02-16T06:54:16;15.50;;;7.35;;
77417;SDS011;66490;51.484;0.026;2023-02-16T06:56:42;13.00;;;8.67;;
77417;SDS011;66490;51.484;0.026;2023-02-16T06:59:09;13.25;;;7.25;;
77417;SDS011;66490;51.484;0.026;2023-02-16T07:01:36;17.40;;;7.75;;
77417;SDS011;66490;51.484;0.026;2023-02-16T07:04:01;13.90;;;7.67;;
77417;SDS011;66490;51.484;0.026;2023-02-16T07:06:27;15.80;;;7.90;;
77417;SDS011;66490;51.484;0.026;2023-02-16T07:08:53;15.63;;;7.53;;
77417;SDS011;66490;51.484;0.026;2023-02-16T07:11:19;18.50;;;8.05;;
77417;SDS011;66490;51.484;0.026;2023-02-16T07:13:45;15.53;;;7.67;;
77417;SDS011;66490;51.484;0.026;2023-02-16T07:16:11;13.40;;;6.88;;
77417;SDS011;66490;51.484;0.026;2023-02-16T07:18:37;15.35;;;7.50;;
77417;SDS011;66490;51.484;0.026;2023-02-16T07:21:03;15.10;;;7.60;;
77417;SDS011;66490;51.484;0.026;2023-02-16T07:23:30;15.25;;;7.72;;
77417;SDS011;66490;51.484;0.026;2023-02-16T07:25:56;13.98;;;6.93;;
77417;SDS011;66490;51.484;0.026;2023-02-16T07:28:22;14.57;;;6.30;;
77417;SDS011;66490;51.484;0.026;2023-02-16T07:30:47;13.80;;;5.83;;
77417;SDS011;66490;51.484;0.026;2023-02-16T07:33:13;11.70;;;4.97;;
77417;SDS011;66490;51.484;0.026;2023-02-16T07:35:39;8.48;;;4.35;;
77417;SDS011;66490;51.484;0.026;2023-02-16T07:38:05;12.57;;;4.95;;
77417;SDS011;66490;51.484;0.026;2023-02-16T07:40:31;10.48;;;4.35;;
77417;SDS011;66490;51.484;0.026;2023-02-16T07:43:01;15.77;;;4.40;;
77417;SDS011;66490;51.484;0.026;2023-02-16T07:45:28;9.10;;;4.68;;
77417;SDS011;66490;51.484;0.026;2023-02-16T07:47:54;10.52;;;4.00;;
77417;SDS011;66490;51.484;0.026;2023-02-16T07:50:21;9.03;;;3.60;;
77417;SDS011;66490;51.484;0.026;2023-02-16T07:52:46;8.02;;;4.20;;
77417;SDS011;66490;51.484;0.026;2023-02-16T07:55:12;9.60;;;4.07;;
77417;SDS011;66490;51.484;0.026;2023-02-16T07:57:37;10.90;;;4.53;;
77417;SDS011;66490;51.484;0.026;2023-02-16T08:00:04;10.45;;;4.43;;
77417;SDS011;66490;51.484;0.026;2023-02-16T08:02:31;11.43;;;5.63;;
77417;SDS011;66490;51.484;0.026;2023-02-16T08:04:57;10.80;;;3.78;;
77417;SDS011;66490;51.484;0.026;2023-02-16T08:07:23;9.05;;;4.13;;
77417;SDS011;66490;51.484;0.026;2023-02-16T08:09:49;11.63;;;3.93;;
77417;SDS011;66490;51.484;0.026;2023-02-16T08:12:15;10.57;;;4.05;;
77417;SDS011;66490;51.484;0.026;2023-02-16T08:14:41;10.30;;;3.75;;
77417;SDS011;66490;51.484;0.026;2023-02-16T08:17:07;8.73;;;3.70;;
77417;SDS011;66490;51.484;0.026;2023-02-16T08:19:33;12.38;;;3.88;;
77417;SDS011;66490;51.484;0.026;2023-02-16T08:22:00;8.63;;;2.93;;
77417;SDS011;66490;51.484;0.026;2023-02-16T08:24:29;6.07;;;2.80;;
77417;SDS011;66490;51.484;0.026;2023-02-16T08:26:55;7.38;;;2.28;;
77417;SDS011;66490;51.484;0.026;2023-02-16T08:29:23;5.90;;;2.30;;
77417;SDS011;66490;51.484;0.026;2023-02-16T08:31:49;6.03;;;2.15;;
77417;SDS011;66490;51.484;0.026;2023-02-16T08:34:17;7.95;;;2.22;;
77417;SDS011;66490;51.484;0.026;2023-02-16T08:36:46;5.13;;;1.83;;
77417;SDS011;66490;51.484;0.026;2023-02-16T08:39:16;5.25;;;1.40;;
77417;SDS011;66490;51.484;0.026;2023-02-16T08:41:45;6.10;;;1.60;;
77417;SDS011;66490;51.484;0.026;2023-02-16T08:44:15;5.22;;;1.10;;
77417;SDS011;66490;51.484;0.026;2023-02-16T08:46:42;4.97;;;1.25;;
77417;SDS011;66490;51.484;0.026;2023-02-16T08:49:09;6.10;;;1.00;;
77417;SDS011;66490;51.484;0.026;2023-02-16T08:51:38;3.83;;;1.30;;
77417;SDS011;66490;51.484;0.026;2023-02-16T08:54:06;5.47;;;1.90;;
77417;SDS011;66490;51.484;0.026;2023-02-16T08:56:36;3.15;;;1.33;;
77417;SDS011;66490;51.484;0.026;2023-02-16T08:59:03;4.22;;;1.75;;
77417;SDS011;66490;51.484;0.026;2023-02-16T09:01:28;5.57;;;1.30;;
77417;SDS011;66490;51.484;0.026;2023-02-16T09:03:54;3.65;;;1.23;;
77417;SDS011;66490;51.484;0.026;2023-02-16T09:06:20;4.47;;;1.73;;
77417;SDS011;66490;51.484;0.026;2023-02-16T09:08:50;2.65;;;1.50;;
77417;SDS011;66490;51.484;0.026;2023-02-16T09:11:18;3.08;;;1.10;;
77417;SDS011;66490;51.484;0.026;2023-02-16T09:13:44;3.60;;;1.20;;
77417;SDS011;66490;51.484;0.026;2023-02-16T09:16:15;4.00;;;1.10;;
77417;SDS011;66490;51.484;0.026;2023-02-16T09:18:43;2.80;;;1.40;;
77417;SDS011;66490;51.484;0.026;2023-02-16T09:21:10;3.90;;;1.55;;
77417;SDS011;66490;51.484;0.026;2023-02-16T09:23:39;7.07;;;1.77;;
77417;SDS011;66490;51.484;0.026;2023-02-16T09:26:05;4.13;;;1.60;;
77417;SDS011;66490;51.484;0.026;2023-02-16T09:28:32;4.10;;;1.30;;
77417;SDS011;66490;51.484;0.026;2023-02-16T09:30:59;4.90;;;2.00;;
77417;SDS011;66490;51.484;0.026;2023-02-16T09:33:24;3.88;;;1.33;;
77417;SDS011;66490;51.484;0.026;2023-02-16T09:35:51;5.00;;;1.90;;
77417;SDS011;66490;51.484;0.026;2023-02-16T09:38:17;4.17;;;1.50;;
77417;SDS011;66490;51.484;0.026;2023-02-16T09:40:43;6.00;;;1.70;;
77417;SDS011;66490;51.484;0.026;2023-02-16T09:45:53;5.53;;;2.03;;
77417;SDS011;66490;51.484;0.026;2023-02-16T09:48:29;4.05;;;2.35;;
77417;SDS011;66490;51.484;0.026;2023-02-16T09:51:02;5.10;;;2.50;;
77417;SDS011;66490;51.484;0.026;2023-02-16T09:53:39;4.90;;;2.72;;
77417;SDS011;66490;51.484;0.026;2023-02-16T09:58:50;6.77;;;3.17;;
77417;SDS011;66490;51.484;0.026;2023-02-16T10:07:01;8.15;;;3.17;;
77417;SDS011;66490;51.484;0.026;2023-02-16T10:09:41;7.60;;;3.80;;
77417;SDS011;66490;51.484;0.026;2023-02-16T10:12:12;6.60;;;3.93;;
77417;SDS011;66490;51.484;0.026;2023-02-16T10:14:53;8.07;;;4.38;;
77417;SDS011;66490;51.484;0.026;2023-02-16T10:17:44;6.45;;;4.20;;
77417;SDS011;66490;51.484;0.026;2023-02-16T10:20:36;6.97;;;5.03;;
77417;SDS011;66490;51.484;0.026;2023-02-16T10:37:32;4.40;;;2.00;;
77417;SDS011;66490;51.484;0.026;2023-02-16T10:45:49;4.53;;;1.77;;
77417;SDS011;66490;51.484;0.026;2023-02-16T10:48:16;4.50;;;2.28;;
77417;SDS011;66490;51.484;0.026;2023-02-16T10:50:55;3.90;;;1.63;;
77417;SDS011;66490;51.484;0.026;2023-02-16T10:55:56;2.70;;;1.35;;
77417;SDS011;66490;51.484;0.026;2023-02-16T10:58:25;5.33;;;1.47;;
77417;SDS011;66490;51.484;0.026;2023-02-16T11:01:08;3.25;;;1.75;;
77417;SDS011;66490;51.484;0.026;2023-02-16T11:03:43;4.88;;;2.20;;
77417;SDS011;66490;51.484;0.026;2023-02-16T11:06:18;3.17;;;1.90;;
77417;SDS011;66490;51.484;0.026;2023-02-16T11:08:47;3.95;;;1.90;;
77417;SDS011;66490;51.484;0.026;2023-02-16T11:11:20;6.33;;;2.00;;
77417;SDS011;66490;51.484;0.026;2023-02-16T11:13:48;3.90;;;1.73;;
77417;SDS011;66490;51.484;0.026;2023-02-16T11:16:31;6.43;;;2.45;;
77417;SDS011;66490;51.484;0.026;2023-02-16T11:19:08;4.20;;;1.88;;
77417;SDS011;66490;51.484;0.026;2023-02-16T11:21:49;6.50;;;2.92;;
77417;SDS011;66490;51.484;0.026;2023-02-16T11:24:23;7.37;;;2.80;;
77417;SDS011;66490;51.484;0.026;2023-02-16T11:27:38;6.97;;;2.90;;
77417;SDS011;66490;51.484;0.026;2023-02-16T11:29:44;5.95;;;2.17;;
77417;SDS011;66490;51.484;0.026;2023-02-16T11:32:20;4.07;;;2.22;;
77417;SDS011;66490;51.484;0.026;2023-02-16T11:34:50;4.70;;;2.97;;
77417;SDS011;66490;51.484;0.026;2023-02-16T11:37:23;5.07;;;2.35;;
77417;SDS011;66490;51.484;0.026;2023-02-16T11:40:05;5.20;;;2.13;;
77417;SDS011;66490;51.484;0.026;2023-02-16T11:42:56;9.02;;;3.00;;
77417;SDS011;66490;51.484;0.026;2023-02-16T11:48:01;5.50;;;2.37;;
77417;SDS011;66490;51.484;0.026;2023-02-16T11:50:35;4.35;;;2.10;;
77417;SDS011;66490;51.484;0.026;2023-02-16T11:55:35;4.50;;;2.33;;
77417;SDS011;66490;51.484;0.026;2023-02-16T11:58:12;3.90;;;2.40;;
77417;SDS011;66490;51.484;0.026;2023-02-16T12:15:17;9.93;;;2.87;;
77417;SDS011;66490;51.484;0.026;2023-02-16T12:23:19;3.13;;;1.25;;
77417;SDS011;66490;51.484;0.026;2023-02-16T12:29:11;4.80;;;2.20;;
77417;SDS011;66490;51.484;0.026;2023-02-16T12:32:22;4.63;;;1.75;;
77417;SDS011;66490;51.484;0.026;2023-02-16T12:46:20;5.40;;;2.15;;
77417;SDS011;66490;51.484;0.026;2023-02-16T12:48:53;5.38;;;2.72;;
77417;SDS011;66490;51.484;0.026;2023-02-16T12:51:32;3.58;;;1.60;;
77417;SDS011;66490;51.484;0.026;2023-02-16T12:56:59;5.87;;;1.67;;
77417;SDS011;66490;51.484;0.026;2023-02-16T13:02:03;3.45;;;1.70;;
77417;SDS011;66490;51.484;0.026;2023-02-16T13:10:13;4.23;;;2.17;;
77417;SDS011;66490;51.484;0.026;2023-02-16T13:12:59;3.58;;;1.70;;
77417;SDS011;66490;51.484;0.026;2023-02-16T13:15:33;4.00;;;1.95;;
77417;SDS011;66490;51.484;0.026;2023-02-16T13:18:19;3.65;;;2.20;;
77417;SDS011;66490;51.484;0.026;2023-02-16T13:20:49;4.05;;;1.90;;
77417;SDS011;66490;51.484;0.026;2023-02-16T13:23:30;3.77;;;2.13;;
77417;SDS011;66490;51.484;0.026;2023-02-16T13:34:56;5.63;;;1.70;;
77417;SDS011;66490;51.484;0.026;2023-02-16T13:37:30;4.30;;;2.20;;
77417;SDS011;66490;51.484;0.026;2023-02-16T13:40:23;3.33;;;1.55;;
77417;SDS011;66490;51.484;0.026;2023-02-16T13:45:38;3.90;;;2.47;;
77417;SDS011;66490;51.484;0.026;2023-02-16T13:51:14;5.00;;;1.60;;
77417;SDS011;66490;51.484;0.026;2023-02-16T13:53:42;3.58;;;1.80;;
77417;SDS011;66490;51.484;0.026;2023-02-16T13:56:21;5.22;;;1.77;;
77417;SDS011;66490;51.484;0.026;2023-02-16T13:58:57;4.35;;;1.90;;
77417;SDS011;66490;51.484;0.026;2023-02-16T14:01:52;5.22;;;1.55;;
77417;SDS011;66490;51.484;0.026;2023-02-16T14:27:51;4.85;;;2.72;;
77417;SDS011;66490;51.484;0.026;2023-02-16T14:32:49;5.00;;;2.50;;
77417;SDS011;66490;51.484;0.026;2023-02-16T14:35:36;6.05;;;2.88;;
77417;SDS011;66490;51.484;0.026;2023-02-16T14:40:56;6.40;;;2.40;;
77417;SDS011;66490;51.484;0.026;2023-02-16T14:43:44;5.40;;;2.60;;
77417;SDS011;66490;51.484;0.026;2023-02-16T14:58:38;4.43;;;2.50;;
77417;SDS011;66490;51.484;0.026;2023-02-16T15:01:15;3.90;;;2.10;;
77417;SDS011;66490;51.484;0.026;2023-02-16T15:06:19;4.15;;;2.65;;
77417;SDS011;66490;51.484;0.026;2023-02-16T15:08:54;5.03;;;2.38;;
77417;SDS011;66490;51.484;0.026;2023-02-16T15:11:46;5.73;;;2.37;;
77417;SDS011;66490;51.484;0.026;2023-02-16T15:14:43;4.63;;;2.00;;
77417;SDS011;66490;51.484;0.026;2023-02-16T15:22:50;3.70;;;1.85;;
77417;SDS011;66490;51.484;0.026;2023-02-16T15:25:23;3.73;;;2.07;;
77417;SDS011;66490;51.484;0.026;2023-02-16T15:27:53;5.65;;;2.20;;
77417;SDS011;66490;51.484;0.026;2023-02-16T15:30:40;5.05;;;2.10;;
77417;SDS011;66490;51.484;0.026;2023-02-16T15:33:11;3.40;;;1.75;;
77417;SDS011;66490;51.484;0.026;2023-02-16T15:35:56;3.90;;;1.38;;
77417;SDS011;66490;51.484;0.026;2023-02-16T15:38:25;4.20;;;1.93;;
77417;SDS011;66490;51.484;0.026;2023-02-16T15:40:56;4.03;;;1.80;;
77417;SDS011;66490;51.484;0.026;2023-02-16T15:46:12;3.35;;;1.63;;
77417;SDS011;66490;51.484;0.026;2023-02-16T15:48:50;3.63;;;1.58;;
77417;SDS011;66490;51.484;0.026;2023-02-16T15:56:37;4.78;;;1.42;;
77417;SDS011;66490;51.484;0.026;2023-02-16T16:04:53;3.17;;;1.87;;
77417;SDS011;66490;51.484;0.026;2023-02-16T16:07:54;3.30;;;1.30;;
77417;SDS011;66490;51.484;0.026;2023-02-16T16:10:23;3.55;;;1.20;;
77417;SDS011;66490;51.484;0.026;2023-02-16T16:12:54;3.85;;;2.30;;
77417;SDS011;66490;51.484;0.026;2023-02-16T16:15:26;3.92;;;1.25;;
77417;SDS011;66490;51.484;0.026;2023-02-16T16:17:58;9.20;;;1.77;;
77417;SDS011;66490;51.484;0.026;2023-02-16T16:22:57;3.67;;;1.98;;
77417;SDS011;66490;51.484;0.026;2023-02-16T16:25:44;4.90;;;1.63;;
77417;SDS011;66490;51.484;0.026;2023-02-16T16:28:12;5.35;;;1.90;;
77417;SDS011;66490;51.484;0.026;2023-02-16T16:31:04;4.03;;;2.13;;
77417;SDS011;66490;51.484;0.026;2023-02-16T16:36:19;6.57;;;2.35;;
77417;SDS011;66490;51.484;0.026;2023-02-16T16:38:45;5.45;;;2.10;;
77417;SDS011;66490;51.484;0.026;2023-02-16T16:41:25;5.25;;;2.60;;
77417;SDS011;66490;51.484;0.026;2023-02-16T16:43:55;4.40;;;1.80;;
77417;SDS011;66490;51.484;0.026;2023-02-16T16:46:28;4.00;;;2.15;;
77417;SDS011;66490;51.484;0.026;2023-02-16T16:48:55;4.22;;;1.95;;
77417;SDS011;66490;51.484;0.026;2023-02-16T16:53:59;3.97;;;2.00;;
77417;SDS011;66490;51.484;0.026;2023-02-16T16:56:28;6.60;;;1.93;;
77417;SDS011;66490;51.484;0.026;2023-02-16T16:58:56;5.07;;;2.42;;
77417;SDS011;66490;51.484;0.026;2023-02-16T17:01:23;5.20;;;2.03;;
77417;SDS011;66490;51.484;0.026;2023-02-16T17:03:52;4.47;;;1.90;;
77417;SDS011;66490;51.484;0.026;2023-02-16T17:06:18;4.93;;;1.97;;
77417;SDS011;66490;51.484;0.026;2023-02-16T17:08:45;4.57;;;2.30;;
77417;SDS011;66490;51.484;0.026;2023-02-16T17:13:48;4.90;;;2.50;;
77417;SDS011;66490;51.484;0.026;2023-02-16T17:16:22;4.80;;;2.47;;
77417;SDS011;66490;51.484;0.026;2023-02-16T17:18:53;5.82;;;2.47;;
77417;SDS011;66490;51.484;0.026;2023-02-16T17:21:19;7.25;;;2.40;;
77417;SDS011;66490;51.484;0.026;2023-02-16T17:23:45;6.03;;;2.20;;
77417;SDS011;66490;51.484;0.026;2023-02-16T17:26:11;4.60;;;2.28;;
77417;SDS011;66490;51.484;0.026;2023-02-16T17:28:38;6.63;;;2.53;;
77417;SDS011;66490;51.484;0.026;2023-02-16T17:31:05;3.33;;;2.20;;
77417;SDS011;66490;51.484;0.026;2023-02-16T17:33:32;5.43;;;2.75;;
77417;SDS011;66490;51.484;0.026;2023-02-16T17:35:57;4.90;;;2.57;;
77417;SDS011;66490;51.484;0.026;2023-02-16T17:38:30;6.88;;;2.45;;
77417;SDS011;66490;51.484;0.026;2023-02-16T17:40:56;6.43;;;2.80;;
77417;SDS011;66490;51.484;0.026;2023-02-16T17:43:28;6.65;;;3.08;;
77417;SDS011;66490;51.484;0.026;2023-02-16T17:45:57;6.43;;;3.72;;
77417;SDS011;66490;51.484;0.026;2023-02-16T17:48:26;6.87;;;3.27;;
77417;SDS011;66490;51.484;0.026;2023-02-16T17:50:57;8.57;;;4.13;;
77417;SDS011;66490;51.484;0.026;2023-02-16T17:53:23;7.43;;;4.18;;
77417;SDS011;66490;51.484;0.026;2023-02-16T17:55:50;7.03;;;3.50;;
77417;SDS011;66490;51.484;0.026;2023-02-16T17:58:23;6.57;;;3.25;;
77417;SDS011;66490;51.484;0.026;2023-02-16T18:00:49;6.87;;;3.27;;
77417;SDS011;66490;51.484;0.026;2023-02-16T18:03:16;8.40;;;3.45;;
77417;SDS011;66490;51.484;0.026;2023-02-16T18:05:43;17.20;;;3.78;;
77417;SDS011;66490;51.484;0.026;2023-02-16T18:08:11;6.90;;;3.38;;
77417;SDS011;66490;51.484;0.026;2023-02-16T18:10:46;7.95;;;3.60;;
77417;SDS011;66490;51.484;0.026;2023-02-16T18:13:14;7.13;;;3.57;;
77417;SDS011;66490;51.484;0.026;2023-02-16T18:15:42;6.38;;;3.88;;
77417;SDS011;66490;51.484;0.026;2023-02-16T18:18:14;9.15;;;3.70;;
77417;SDS011;66490;51.484;0.026;2023-02-16T18:20:41;7.65;;;4.10;;
77417;SDS011;66490;51.484;0.026;2023-02-16T18:23:07;8.38;;;5.07;;
77417;SDS011;66490;51.484;0.026;2023-02-16T18:25:33;7.43;;;4.13;;
77417;SDS011;66490;51.484;0.026;2023-02-16T18:27:59;8.77;;;4.47;;
77417;SDS011;66490;51.484;0.026;2023-02-16T18:30:25;7.50;;;4.77;;
77417;SDS011;66490;51.484;0.026;2023-02-16T18:32:53;7.80;;;4.47;;